Time;durP1;ratioP1;P1;durP2;ratioP2;P2;SDS_P1;SDS_P2;PMS_P1;PMS_P2;Temp;Humidity;BMP_temperature;BMP_pressure;BME280_temperature;BME280_humidity;BME280_pressure;Samples;Min_cycle;Max_cycle;Signal;HPM_P1;HPM_P2
2022/03/26 02:03:10;;;;;;;;;;;;;;;5.77;45.71;100955.00;6248437;22;19930;-83
2022/03/26 02:05:36;;;;;;;;;;;;;;;5.73;45.49;100954.97;6273908;22;20256;-83
2022/03/26 02:08:01;;;;;;;;;;;;;;;5.69;46.03;100947.88;6274420;22;19912;-83
2022/03/26 02:10:28;;;;;;;;;;;;;;;5.68;45.65;100954.53;6274534;22;19915;-83
2022/03/26 02:12:53;;;;;;;;;;;;;;;5.70;45.70;100952.19;6247246;22;20391;-83
2022/03/26 02:15:19;;;;;;;;;;;;;;;5.71;45.61;100951.81;6274106;22;19915;-83
2022/03/26 02:17:45;;;;;;;;;;;;;;;5.67;46.14;100955.69;6273541;22;19959;-83
2022/03/26 02:20:11;;;;;;;;;;;;;;;5.66;46.12;100952.19;6274262;22;19961;-83
2022/03/26 02:22:36;;;;;;;;;;;;;;;5.47;47.27;100955.16;6247607;22;19915;-83
2022/03/26 02:25:02;;;;;;;;;;;;;;;5.42;47.54;100956.28;6274606;22;20336;-83
2022/03/26 02:27:28;;;;;;;;;;;;;;;5.37;47.00;100959.41;6273868;22;20590;-83
2022/03/26 02:29:53;;;;;;;;;;;;;;;5.28;47.41;100958.13;6274332;22;19915;-83
2022/03/26 02:32:22;;;;;;;;;;;;;;;5.21;47.47;100956.09;6273064;22;19915;-83
2022/03/26 02:34:48;;;;;;;;;;;;;;;5.21;47.75;100958.84;6246758;22;19919;-83
2022/03/26 02:37:13;;;;;;;;;;;;;;;5.18;47.63;100963.13;6221746;22;20335;-83
2022/03/26 02:39:39;;;;;;;;;;;;;;;5.11;47.91;100959.53;6274402;22;20330;-86
2022/03/26 02:42:04;;;;;;;;;;;;;;;5.03;48.30;100957.88;6247408;22;19915;-87
2022/03/26 02:44:30;;;;;;;;;;;;;;;5.02;47.76;100953.53;6247393;22;19919;-87
2022/03/26 02:46:55;;;;;;;;;;;;;;;4.97;48.05;100965.69;6274302;22;19915;-87
2022/03/26 02:49:21;;;;;;;;;;;;;;;4.89;48.28;100963.25;6274047;22;19915;-87
2022/03/26 02:51:46;;;;;;;;;;;;;;;4.83;48.95;100961.97;6247551;22;19916;-87
2022/03/26 02:54:18;;;;;;;;;;;;;;;4.70;49.84;100964.19;6274526;22;19918;-87
2022/03/26 02:56:56;;;;;;;;;;;;;;;4.73;49.52;100968.16;6276092;22;19997;-86
2022/03/26 02:59:21;;;;;;;;;;;;;;;4.73;50.40;100973.66;6251209;22;19926;-87
2022/03/26 03:01:47;;;;;;;;;;;;;;;4.75;51.08;100966.59;6244390;23;19915;-87
2022/03/26 03:04:12;;;;;;;;;;;;;;;4.76;51.10;100967.41;6218743;23;19915;-87
2022/03/26 03:06:38;;;;;;;;;;;;;;;4.79;51.13;100972.13;6219381;23;20338;-86
2022/03/26 03:09:04;;;;;;;;;;;;;;;4.78;51.02;100970.53;6245248;23;19924;-86
2022/03/26 03:11:29;;;;;;;;;;;;;;;4.80;50.50;100973.72;6218870;23;20508;-87
2022/03/26 03:13:55;;;;;;;;;;;;;;;4.81;49.99;100972.56;6244747;23;19916;-87
2022/03/26 03:16:20;;;;;;;;;;;;;;;4.78;49.84;100971.34;6218324;23;19966;-83
2022/03/26 03:18:46;;;;;;;;;;;;;;;4.66;49.99;100971.59;6244992;23;20257;-86
2022/03/26 03:21:11;;;;;;;;;;;;;;;4.55;51.06;100979.72;6242992;23;20333;-86
2022/03/26 03:23:37;;;;;;;;;;;;;;;4.49;51.42;100975.69;6216844;23;20245;-87
2022/03/26 03:26:02;;;;;;;;;;;;;;;4.48;51.58;100976.88;6218964;23;19916;-86
2022/03/26 03:28:30;;;;;;;;;;;;;;;4.42;51.83;100970.13;6218439;23;19908;-87
2022/03/26 03:30:55;;;;;;;;;;;;;;;4.42;51.64;100972.88;6245140;23;19970;-87
2022/03/26 03:33:21;;;;;;;;;;;;;;;4.47;52.06;100978.03;6244832;23;19916;-87
2022/03/26 03:35:46;;;;;;;;;;;;;;;4.44;50.90;100972.50;6245010;23;19938;-86
2022/03/26 03:38:11;;;;;;;;;;;;;;;4.44;50.54;100976.03;6244486;23;19923;-87
2022/03/26 03:40:37;;;;;;;;;;;;;;;4.41;50.64;100974.03;6245177;23;19922;-87
2022/03/26 03:43:02;;;;;;;;;;;;;;;4.26;52.68;100976.94;6244433;23;19911;-87
2022/03/26 03:45:28;;;;;;;;;;;;;;;4.21;52.73;100970.63;6245207;23;19951;-86
2022/03/26 03:47:53;;;;;;;;;;;;;;;4.21;52.44;100975.31;6244491;23;19911;-87
2022/03/26 03:50:19;;;;;;;;;;;;;;;4.08;53.41;100971.22;6245127;23;19920;-86
2022/03/26 03:52:44;;;;;;;;;;;;;;;4.03;53.57;100969.59;6244368;23;19916;-86
2022/03/26 03:55:10;;;;;;;;;;;;;;;4.09;53.58;100973.59;6244706;23;20407;-83
2022/03/26 03:57:38;;;;;;;;;;;;;;;4.10;53.72;100968.88;6244913;23;20244;-83
2022/03/26 04:00:03;;;;;;;;;;;;;;;4.02;54.03;100972.69;6217953;23;19922;-83
2022/03/26 04:02:37;;;;;;;;;;;;;;;3.88;54.48;100967.00;6244319;23;19958;-83
2022/03/26 04:05:03;;;;;;;;;;;;;;;3.92;54.34;100970.59;6244484;23;19916;-83
2022/03/26 04:07:29;;;;;;;;;;;;;;;4.02;54.28;100973.50;6244323;23;20301;-83
2022/03/26 04:09:54;;;;;;;;;;;;;;;4.04;54.12;100964.91;6192816;23;19990;-83
2022/03/26 04:12:19;;;;;;;;;;;;;;;3.95;54.00;100972.59;6244482;23;20249;-84
2022/03/26 04:14:45;;;;;;;;;;;;;;;3.86;54.35;100981.09;6244733;23;20318;-84
2022/03/26 04:17:11;;;;;;;;;;;;;;;3.88;53.87;100978.00;6244298;23;19919;-83
2022/03/26 04:19:36;;;;;;;;;;;;;;;3.86;53.82;100974.81;6244701;23;19912;-83
2022/03/26 04:22:02;;;;;;;;;;;;;;;3.76;54.35;100979.75;6244067;23;19995;-83
2022/03/26 04:24:27;;;;;;;;;;;;;;;3.67;55.36;100984.72;6244542;23;19916;-84
2022/03/26 04:26:53;;;;;;;;;;;;;;;3.65;57.71;100989.78;6244198;23;19959;-83
2022/03/26 04:29:19;;;;;;;;;;;;;;;3.59;58.22;100991.25;6244398;23;19999;-83
2022/03/26 04:31:45;;;;;;;;;;;;;;;3.48;58.69;100989.50;6244450;23;19960;-83
2022/03/26 04:34:11;;;;;;;;;;;;;;;3.47;59.08;100996.94;6243916;23;19919;-83
2022/03/26 04:36:36;;;;;;;;;;;;;;;3.44;59.11;100992.16;6244263;23;19922;-83
2022/03/26 04:39:02;;;;;;;;;;;;;;;3.45;59.23;100993.75;6243852;23;19991;-83
2022/03/26 04:41:28;;;;;;;;;;;;;;;3.47;57.60;100996.94;6244709;23;19986;-83
2022/03/26 04:43:53;;;;;;;;;;;;;;;3.56;56.57;100994.72;6243769;23;19915;-83
2022/03/26 04:46:19;;;;;;;;;;;;;;;3.67;54.71;100992.94;6244585;23;19920;-83
2022/03/26 04:48:45;;;;;;;;;;;;;;;3.79;54.50;100996.66;6242491;23;20330;-83
2022/03/26 04:51:11;;;;;;;;;;;;;;;3.85;54.00;100995.97;6244315;23;19916;-83
2022/03/26 04:53:37;;;;;;;;;;;;;;;4.03;52.75;100996.25;6244359;23;19962;-83
2022/03/26 04:56:02;;;;;;;;;;;;;;;4.23;51.75;100989.47;6243933;23;19955;-83
2022/03/26 04:58:28;;;;;;;;;;;;;;;4.38;51.50;100996.75;6244230;23;19916;-83
2022/03/26 05:00:53;;;;;;;;;;;;;;;4.55;50.38;101001.69;6243835;23;19911;-83
2022/03/26 05:03:18;;;;;;;;;;;;;;;4.70;50.11;101003.44;6243479;23;20290;-84
2022/03/26 05:05:44;;;;;;;;;;;;;;;4.80;50.11;101002.00;6243761;23;19916;-83
2022/03/26 05:08:10;;;;;;;;;;;;;;;4.80;51.23;101001.22;6243675;23;19947;-83
2022/03/26 05:10:35;;;;;;;;;;;;;;;4.77;51.20;101007.47;6244216;23;19916;-83
2022/03/26 05:13:01;;;;;;;;;;;;;;;4.68;53.53;101016.78;6243451;23;19920;-83
2022/03/26 05:15:29;;;;;;;;;;;;;;;4.61;53.67;101016.69;6243668;23;19916;-83
2022/03/26 05:17:56;;;;;;;;;;;;;;;4.52;54.81;101018.13;6243052;23;19951;-83
2022/03/26 05:20:21;;;;;;;;;;;;;;;4.53;55.37;101020.50;6243873;23;19912;-83
2022/03/26 05:22:47;;;;;;;;;;;;;;;4.54;55.40;101005.59;6243319;23;20396;-84
2022/03/26 05:25:13;;;;;;;;;;;;;;;4.61;55.55;101010.41;6243604;23;19916;-83
2022/03/26 05:27:43;;;;;;;;;;;;;;;4.70;54.70;101014.44;6241964;23;20041;-83
2022/03/26 05:30:08;;;;;;;;;;;;;;;4.76;53.90;101016.88;6243426;23;19915;-83
2022/03/26 05:32:34;;;;;;;;;;;;;;;4.83;53.02;101019.69;6243695;23;19915;-82
2022/03/26 05:34:59;;;;;;;;;;;;;;;4.92;54.03;101018.25;6241806;23;19915;-81
2022/03/26 05:37:25;;;;;;;;;;;;;;;5.01;54.40;101028.97;6243074;23;20337;-82
2022/03/26 05:39:50;;;;;;;;;;;;;;;5.08;54.27;101012.53;6243446;23;19916;-82
2022/03/26 05:42:15;;;;;;;;;;;;;;;5.16;52.25;101025.19;6242615;23;19938;-82
2022/03/26 05:44:41;;;;;;;;;;;;;;;5.44;50.13;101022.75;6243398;23;19915;-82
2022/03/26 05:47:07;;;;;;;;;;;;;;;5.86;48.45;101019.63;6243454;23;19912;-82
2022/03/26 05:49:35;;;;;;;;;;;;;;;6.19;47.64;101015.91;6217221;23;19916;-82
2022/03/26 05:52:00;;;;;;;;;;;;;;;6.43;48.02;101022.78;6243143;23;19919;-82
2022/03/26 05:54:26;;;;;;;;;;;;;;;6.66;47.45;101022.50;6242848;23;20234;-82
2022/03/26 05:56:52;;;;;;;;;;;;;;;6.90;46.01;101028.13;6215176;23;20002;-82
2022/03/26 05:59:18;;;;;;;;;;;;;;;7.10;45.50;101025.81;6240887;23;19969;-82
2022/03/26 06:01:43;;;;;;;;;;;;;;;7.31;44.75;101023.13;6241546;23;19919;-82
2022/03/26 06:04:08;;;;;;;;;;;;;;;7.54;44.22;101028.28;6241860;23;19926;-82
2022/03/26 06:06:34;;;;;;;;;;;;;;;7.76;44.00;101026.34;6241966;23;19923;-82
2022/03/26 06:08:59;;;;;;;;;;;;;;;8.01;43.71;101038.16;6237589;23;19915;-82
2022/03/26 06:11:25;;;;;;;;;;;;;;;8.16;43.95;101037.00;6240142;23;19916;-82
2022/03/26 06:13:50;;;;;;;;;;;;;;;8.35;42.73;101038.56;6239736;23;19920;-82
2022/03/26 06:16:15;;;;;;;;;;;;;;;8.52;41.60;101036.94;6240464;23;19975;-82
2022/03/26 06:18:42;;;;;;;;;;;;;;;8.59;41.35;101048.00;6241012;23;19938;-82
2022/03/26 06:21:07;;;;;;;;;;;;;;;8.68;41.67;101042.84;6240155;23;19924;-82
2022/03/26 06:23:33;;;;;;;;;;;;;;;8.78;41.60;101050.28;6243003;23;19930;-82
2022/03/26 06:25:58;;;;;;;;;;;;;;;8.94;41.57;101030.50;6242986;23;19923;-82
2022/03/26 06:28:23;;;;;;;;;;;;;;;9.09;41.42;101045.84;6243108;23;20265;-82
2022/03/26 06:30:49;;;;;;;;;;;;;;;9.25;41.18;101051.69;6218128;23;19918;-81
2022/03/26 06:33:16;;;;;;;;;;;;;;;9.47;40.46;101039.28;6244661;23;19916;-81
2022/03/26 06:35:44;;;;;;;;;;;;;;;9.67;40.94;101047.88;6244700;23;19954;-81
2022/03/26 06:38:10;;;;;;;;;;;;;;;9.82;40.18;101049.34;6244239;23;19916;-82
2022/03/26 06:40:37;;;;;;;;;;;;;;;10.01;39.85;101046.03;6244805;23;20420;-81
2022/03/26 06:43:02;;;;;;;;;;;;;;;10.18;39.09;101053.44;6242735;23;19919;-81
2022/03/26 06:45:28;;;;;;;;;;;;;;;10.27;39.14;101056.50;6243349;23;20356;-81
2022/03/26 06:47:53;;;;;;;;;;;;;;;10.44;39.60;101056.75;6243572;23;20350;-81
2022/03/26 06:50:19;;;;;;;;;;;;;;;10.53;38.21;101057.06;6243742;23;19922;-81
2022/03/26 06:52:45;;;;;;;;;;;;;;;10.54;39.02;101064.19;6243803;23;19916;-81
2022/03/26 06:55:10;;;;;;;;;;;;;;;10.60;38.14;101070.84;6241840;23;19927;-81
2022/03/26 06:57:36;;;;;;;;;;;;;;;10.70;38.33;101072.75;6243358;23;20408;-81
2022/03/26 07:00:01;;;;;;;;;;;;;;;10.81;38.30;101067.84;6241550;23;19946;-82
2022/03/26 07:02:27;;;;;;;;;;;;;;;10.95;37.64;101076.03;6240924;23;20502;-81
2022/03/26 07:04:53;;;;;;;;;;;;;;;10.99;37.87;101068.44;6239848;23;19969;-85
2022/03/26 07:07:19;;;;;;;;;;;;;;;11.11;37.48;101075.44;6242567;23;19951;-86
2022/03/26 07:09:44;;;;;;;;;;;;;;;11.15;36.80;101076.97;6243221;23;19923;-85
2022/03/26 07:12:10;;;;;;;;;;;;;;;11.21;36.58;101075.31;6243843;23;19919;-86
2022/03/26 07:14:35;;;;;;;;;;;;;;;11.31;36.99;101083.91;6217720;23;20476;-86
2022/03/26 07:17:01;;;;;;;;;;;;;;;11.49;36.66;101084.44;6244750;23;20241;-85
2022/03/26 07:19:27;;;;;;;;;;;;;;;11.61;35.96;101075.56;6244963;23;20326;-85
2022/03/26 07:21:52;;;;;;;;;;;;;;;11.62;36.63;101077.91;6245350;23;20332;-84
2022/03/26 07:24:18;;;;;;;;;;;;;;;11.73;36.56;101072.22;6244299;23;20412;-85
2022/03/26 07:26:43;;;;;;;;;;;;;;;11.87;36.46;101083.16;6244766;23;19915;-85
2022/03/26 07:29:08;;;;;;;;;;;;;;;12.10;36.52;101085.94;6242889;23;19919;-85
2022/03/26 07:31:34;;;;;;;;;;;;;;;12.29;36.16;101087.25;6245091;23;19919;-85
2022/03/26 07:33:59;;;;;;;;;;;;;;;12.46;35.49;101085.34;6244634;23;19920;-85
2022/03/26 07:36:24;;;;;;;;;;;;;;;12.47;36.01;101078.56;6244969;23;19923;-84
2022/03/26 07:38:50;;;;;;;;;;;;;;;12.69;35.36;101087.31;6244619;23;19990;-84
2022/03/26 07:41:16;;;;;;;;;;;;;;;12.75;35.85;101091.19;6244712;23;20279;-85
2022/03/26 07:43:41;;;;;;;;;;;;;;;12.84;35.85;101094.97;6244451;23;19919;-81
2022/03/26 07:46:07;;;;;;;;;;;;;;;12.87;35.49;101091.34;6244719;23;19994;-80
2022/03/26 07:48:32;;;;;;;;;;;;;;;12.99;35.60;101093.47;6244511;23;19911;-81
2022/03/26 07:50:58;;;;;;;;;;;;;;;13.19;35.68;101093.50;6244838;23;19987;-81
2022/03/26 07:53:25;;;;;;;;;;;;;;;13.30;34.96;101094.09;6244381;23;19920;-81
2022/03/26 07:55:51;;;;;;;;;;;;;;;13.36;35.73;101078.44;6217476;23;19923;-81
2022/03/26 07:58:16;;;;;;;;;;;;;;;13.58;35.48;101089.13;6217194;23;19915;-81
2022/03/26 08:00:41;;;;;;;;;;;;;;;13.64;35.01;101085.38;6244713;23;19915;-81
2022/03/26 08:03:08;;;;;;;;;;;;;;;13.85;35.12;101089.69;6243074;23;19919;-81
2022/03/26 08:05:34;;;;;;;;;;;;;;;13.96;34.82;101090.19;6244271;23;19954;-81
2022/03/26 08:07:59;;;;;;;;;;;;;;;13.92;34.94;101087.50;6243680;23;19920;-81
2022/03/26 08:10:24;;;;;;;;;;;;;;;14.00;34.82;101088.91;6244342;23;19916;-80
2022/03/26 08:12:50;;;;;;;;;;;;;;;14.13;34.41;101099.38;6244438;23;19915;-81
2022/03/26 08:15:16;;;;;;;;;;;;;;;14.23;34.65;101103.91;6243933;23;19915;-81
2022/03/26 08:17:41;;;;;;;;;;;;;;;14.19;34.80;101097.63;6243836;23;20289;-81
2022/03/26 08:20:07;;;;;;;;;;;;;;;14.33;34.49;101102.84;6240665;23;19969;-80
2022/03/26 08:22:34;;;;;;;;;;;;;;;14.59;34.48;101098.25;6243116;23;19915;-81
2022/03/26 08:25:00;;;;;;;;;;;;;;;14.99;33.55;101105.13;6241864;23;20237;-80
2022/03/26 08:27:25;;;;;;;;;;;;;;;15.11;33.05;101101.59;6242760;23;19966;-80
2022/03/26 08:29:52;;;;;;;;;;;;;;;15.32;33.22;101100.19;6242564;23;19916;-80
2022/03/26 08:32:18;;;;;;;;;;;;;;;15.25;32.52;101095.56;6190284;23;19982;-81
2022/03/26 08:34:44;;;;;;;;;;;;;;;15.25;32.64;101106.75;6215160;23;19915;-81
2022/03/26 08:37:09;;;;;;;;;;;;;;;15.29;32.92;101106.66;6241930;23;19916;-80
2022/03/26 08:39:35;;;;;;;;;;;;;;;15.54;32.75;101105.94;6242831;23;19950;-80
2022/03/26 08:42:01;;;;;;;;;;;;;;;15.59;32.72;101106.19;6241539;23;20395;-86
2022/03/26 08:44:26;;;;;;;;;;;;;;;15.68;31.78;101100.72;6216334;23;19916;-86
2022/03/26 08:46:52;;;;;;;;;;;;;;;15.74;32.36;101098.13;6242278;23;20038;-86
2022/03/26 08:49:17;;;;;;;;;;;;;;;16.10;32.34;101097.78;6241756;23;19946;-86
2022/03/26 08:51:43;;;;;;;;;;;;;;;16.28;32.11;101092.41;6242461;23;19926;-86
2022/03/26 08:54:08;;;;;;;;;;;;;;;16.52;30.96;101101.97;6241533;23;19915;-86
2022/03/26 08:56:34;;;;;;;;;;;;;;;16.65;31.30;101102.75;6242575;23;20322;-86
2022/03/26 08:58:59;;;;;;;;;;;;;;;16.91;30.85;101100.63;6216698;23;19990;-86
2022/03/26 09:01:25;;;;;;;;;;;;;;;17.05;30.45;101088.13;6217702;23;19970;-86
2022/03/26 09:03:50;;;;;;;;;;;;;;;17.20;29.01;101094.78;6217572;23;20419;-85
2022/03/26 09:06:16;;;;;;;;;;;;;;;17.12;29.31;101082.25;6244518;23;19915;-86
2022/03/26 09:08:41;;;;;;;;;;;;;;;17.21;29.58;101093.53;6217416;23;20404;-86
2022/03/26 09:11:07;;;;;;;;;;;;;;;17.32;29.69;101091.09;6243792;23;19923;-86
2022/03/26 09:13:32;;;;;;;;;;;;;;;17.57;29.48;101096.59;6216745;23;19919;-86
2022/03/26 09:15:58;;;;;;;;;;;;;;;17.69;27.96;101090.09;6217422;23;19912;-85
2022/03/26 09:18:24;;;;;;;;;;;;;;;17.78;28.76;101094.19;6243808;23;20042;-85
2022/03/26 09:20:50;;;;;;;;;;;;;;;17.81;28.48;101093.25;6243974;23;19918;-86
2022/03/26 09:23:15;;;;;;;;;;;;;;;17.93;28.68;101083.94;6243288;23;19915;-86
2022/03/26 09:25:42;;;;;;;;;;;;;;;18.09;28.35;101076.06;6244012;23;19970;-86
2022/03/26 09:28:07;;;;;;;;;;;;;;;18.22;28.66;101087.16;6241334;23;20334;-86
2022/03/26 09:30:33;;;;;;;;;;;;;;;18.38;28.72;101081.28;6243784;23;19947;-86
2022/03/26 09:32:58;;;;;;;;;;;;;;;18.35;27.34;101081.44;6243838;23;19957;-86
2022/03/26 09:35:24;;;;;;;;;;;;;;;18.54;28.05;101083.81;6243580;23;20006;-85
2022/03/26 09:37:49;;;;;;;;;;;;;;;18.59;27.14;101080.41;6216939;23;19990;-80
2022/03/26 09:40:15;;;;;;;;;;;;;;;18.89;27.49;101083.50;6243393;23;20317;-80
2022/03/26 09:42:40;;;;;;;;;;;;;;;18.75;26.56;101087.75;6243241;23;20226;-80
2022/03/26 09:45:07;;;;;;;;;;;;;;;18.78;27.16;101080.38;6243337;23;19998;-81
2022/03/26 09:47:32;;;;;;;;;;;;;;;19.04;27.18;101074.00;6244066;23;19916;-81
2022/03/26 09:49:58;;;;;;;;;;;;;;;19.08;26.24;101073.81;6243749;23;19927;-81
2022/03/26 09:52:24;;;;;;;;;;;;;;;19.37;26.70;101074.06;6216946;23;20249;-80
2022/03/26 09:54:49;;;;;;;;;;;;;;;19.40;25.83;101073.13;6216792;23;20046;-80
2022/03/26 09:57:14;;;;;;;;;;;;;;;19.31;26.00;101067.53;6242965;23;19961;-80
2022/03/26 09:59:40;;;;;;;;;;;;;;;19.50;26.84;101057.78;6243783;23;19916;-80
2022/03/26 10:02:06;;;;;;;;;;;;;;;19.82;25.89;101063.91;6243281;23;20446;-80
2022/03/26 10:04:38;;;;;;;;;;;;;;;19.80;25.49;101067.22;6244008;23;19990;-80
2022/03/26 10:07:04;;;;;;;;;;;;;;;19.97;26.12;101067.63;6247173;23;19915;-80
2022/03/26 10:09:33;;;;;;;;;;;;;;;20.09;25.43;101058.16;6246762;23;19916;-80
2022/03/26 10:12:00;;;;;;;;;;;;;;;19.99;24.92;101065.09;6246605;23;19926;-80
2022/03/26 10:14:35;;;;;;;;;;;;;;;19.95;24.83;101064.50;6246363;23;19922;-81
2022/03/26 10:17:07;;;;;;;;;;;;;;;20.13;25.58;101061.59;6245584;23;20344;-80
2022/03/26 10:19:34;;;;;;;;;;;;;;;20.31;24.77;101049.44;6247054;23;19916;-80
2022/03/26 10:22:00;;;;;;;;;;;;;;;20.55;24.50;101050.19;6220514;23;19923;-80
2022/03/26 10:24:25;;;;;;;;;;;;;;;20.88;24.54;101050.06;6194630;23;19919;-80
2022/03/26 10:26:51;;;;;;;;;;;;;;;20.87;24.21;101043.66;6246706;23;19915;-80
2022/03/26 10:29:16;;;;;;;;;;;;;;;21.17;24.73;101050.13;6246411;23;20338;-80
2022/03/26 10:34:26;;;;;;;;;;;;;;;21.12;23.55;101048.00;6246487;23;19963;-80
2022/03/26 10:36:54;;;;;;;;;;;;;;;20.98;24.63;101047.97;6247099;23;19915;-85
2022/03/26 10:39:20;;;;;;;;;;;;;;;21.00;22.84;101039.78;6244925;23;19916;-85
2022/03/26 10:41:47;;;;;;;;;;;;;;;21.15;22.87;101034.97;6220283;23;20289;-86
2022/03/26 10:44:13;;;;;;;;;;;;;;;21.03;22.51;101039.59;6246293;23;19915;-86
2022/03/26 10:46:41;;;;;;;;;;;;;;;21.06;22.20;101033.00;6220416;23;19916;-86
2022/03/26 10:49:07;;;;;;;;;;;;;;;20.96;22.49;101028.69;6246186;23;19916;-85
2022/03/26 10:51:37;;;;;;;;;;;;;;;21.12;21.03;101016.19;6246908;23;19971;-86
2022/03/26 10:54:09;;;;;;;;;;;;;;;21.01;21.95;101025.19;6244995;23;19915;-86
2022/03/26 10:56:35;;;;;;;;;;;;;;;20.67;20.92;101017.38;6218819;23;20510;-85
2022/03/26 10:59:00;;;;;;;;;;;;;;;20.98;20.58;101009.25;6216943;23;19912;-86
2022/03/26 11:01:26;;;;;;;;;;;;;;;21.27;21.48;101014.91;6242389;23;20243;-85
2022/03/26 11:03:51;;;;;;;;;;;;;;;21.49;21.33;101008.84;6244137;23;19919;-85
2022/03/26 11:06:16;;;;;;;;;;;;;;;21.48;20.99;101007.28;6217384;23;19990;-84
2022/03/26 11:08:42;;;;;;;;;;;;;;;21.72;22.09;101009.97;6192447;23;19943;-85
2022/03/26 11:11:08;;;;;;;;;;;;;;;21.86;21.25;100997.84;6243744;23;20345;-85
2022/03/26 11:13:38;;;;;;;;;;;;;;;21.94;20.61;101015.19;6217870;23;19927;-80
2022/03/26 11:16:04;;;;;;;;;;;;;;;21.79;20.45;101018.03;6245799;23;19925;-80
2022/03/26 11:18:30;;;;;;;;;;;;;;;21.73;19.99;101000.22;6217764;23;20280;-80
2022/03/26 11:21:14;;;;;;;;;;;;;;;21.67;19.86;101008.63;6245165;23;19998;-79
2022/03/26 11:23:46;;;;;;;;;;;;;;;21.85;19.57;101011.19;6244621;23;19920;-81
2022/03/26 11:26:17;;;;;;;;;;;;;;;21.54;19.49;101005.34;6217133;23;19990;-79
2022/03/26 11:29:01;;;;;;;;;;;;;;;21.39;18.89;100993.31;6244603;23;19916;-79
2022/03/26 11:31:26;;;;;;;;;;;;;;;21.28;18.97;100988.25;6244594;23;19922;-79
2022/03/26 11:34:00;;;;;;;;;;;;;;;21.35;19.27;100984.25;6244750;23;19995;-79
2022/03/26 11:36:27;;;;;;;;;;;;;;;21.49;19.11;100985.50;6244050;23;19919;-79
2022/03/26 11:38:53;;;;;;;;;;;;;;;21.36;18.62;100983.75;6244151;23;20249;-80
2022/03/26 11:41:22;;;;;;;;;;;;;;;21.33;19.51;100979.09;6217429;23;19922;-80
2022/03/26 11:43:47;;;;;;;;;;;;;;;21.15;19.77;100984.19;6218441;23;19942;-80
2022/03/26 11:51:54;;;;;;;;;;;;;;;21.08;21.82;100965.56;6244003;23;20257;-79
2022/03/26 11:54:19;;;;;;;;;;;;;;;21.21;21.39;100954.78;6216168;23;19923;-80
2022/03/26 11:56:47;;;;;;;;;;;;;;;21.41;20.54;100951.25;6216294;23;20369;-80
2022/03/26 11:59:15;;;;;;;;;;;;;;;21.45;21.09;100948.22;6216413;23;19922;-80
2022/03/26 12:01:41;;;;;;;;;;;;;;;21.48;20.75;100947.22;6243241;23;19935;-79
2022/03/26 12:04:13;;;;;;;;;;;;;;;21.69;21.20;100938.31;6242119;23;19922;-80
2022/03/26 12:06:51;;;;;;;;;;;;;;;21.69;20.62;100943.19;6242474;23;19927;-80
2022/03/26 12:09:35;;;;;;;;;;;;;;;21.55;21.10;100925.03;6242142;23;19915;-79
2022/03/26 12:12:14;;;;;;;;;;;;;;;21.77;20.83;100930.19;6242779;23;19922;-85
2022/03/26 12:14:59;;;;;;;;;;;;;;;21.76;20.68;100920.16;6243133;23;19919;-85
2022/03/26 12:17:46;;;;;;;;;;;;;;;21.62;20.74;100904.06;6243126;23;19915;-85
2022/03/26 12:20:20;;;;;;;;;;;;;;;21.76;21.14;100906.81;6242695;23;19915;-85
2022/03/26 12:22:48;;;;;;;;;;;;;;;21.86;20.88;100896.19;6242964;23;19965;-84
2022/03/26 12:25:18;;;;;;;;;;;;;;;21.88;20.33;100896.44;6214909;23;20466;-85
2022/03/26 12:27:44;;;;;;;;;;;;;;;21.76;20.74;100892.72;6242431;23;19916;-84
2022/03/26 12:30:09;;;;;;;;;;;;;;;21.57;20.75;100891.44;6215136;23;19958;-85
2022/03/26 12:32:35;;;;;;;;;;;;;;;21.53;20.92;100892.91;6242588;23;20300;-85
2022/03/26 12:35:05;;;;;;;;;;;;;;;21.69;21.46;100893.13;6240065;23;19915;-85
2022/03/26 12:37:31;;;;;;;;;;;;;;;21.43;20.96;100892.28;6241892;23;19981;-84
2022/03/26 12:39:56;;;;;;;;;;;;;;;21.58;20.35;100886.56;6242100;23;19990;-84
2022/03/26 12:42:23;;;;;;;;;;;;;;;21.85;20.61;100886.16;6214573;23;19919;-84
2022/03/26 12:44:48;;;;;;;;;;;;;;;21.86;20.83;100882.84;6241899;23;19915;-84
2022/03/26 12:47:14;;;;;;;;;;;;;;;22.04;22.08;100878.19;6241430;23;19912;-84
2022/03/26 12:49:40;;;;;;;;;;;;;;;21.98;20.09;100875.31;6243057;23;20277;-79
2022/03/26 12:52:06;;;;;;;;;;;;;;;21.88;20.49;100876.69;6243128;23;19994;-79
2022/03/26 12:54:32;;;;;;;;;;;;;;;21.78;20.79;100869.63;6242947;23;19916;-80
2022/03/26 12:56:59;;;;;;;;;;;;;;;21.23;20.27;100867.59;6243341;23;19915;-80
2022/03/26 12:59:24;;;;;;;;;;;;;;;21.45;20.15;100866.38;6216423;23;20285;-79
2022/03/26 13:01:59;;;;;;;;;;;;;;;21.48;20.11;100848.44;6243152;23;19923;-80
2022/03/26 13:04:25;;;;;;;;;;;;;;;21.80;20.84;100858.59;6216173;23;19915;-79
2022/03/26 13:06:54;;;;;;;;;;;;;;;21.95;20.32;100852.94;6243993;23;19926;-80
2022/03/26 13:09:19;;;;;;;;;;;;;;;21.94;19.71;100848.53;6243580;23;19919;-79
2022/03/26 13:11:45;;;;;;;;;;;;;;;22.04;21.87;100855.59;6243095;23;20372;-79
2022/03/26 13:14:11;;;;;;;;;;;;;;;22.17;20.33;100836.19;6216516;23;19927;-79
2022/03/26 13:16:37;;;;;;;;;;;;;;;22.31;19.60;100841.75;6243415;23;19919;-79
2022/03/26 13:19:03;;;;;;;;;;;;;;;22.40;20.52;100842.88;6243537;23;19915;-79
2022/03/26 13:21:29;;;;;;;;;;;;;;;22.44;19.28;100832.09;6242731;23;20450;-79
2022/03/26 13:23:55;;;;;;;;;;;;;;;22.45;20.20;100830.81;6243628;23;19911;-80
2022/03/26 13:26:21;;;;;;;;;;;;;;;22.64;20.68;100834.84;6243130;23;20253;-80
2022/03/26 13:28:46;;;;;;;;;;;;;;;22.59;20.04;100827.09;6217020;23;19941;-80
2022/03/26 13:31:17;;;;;;;;;;;;;;;22.25;20.28;100821.13;6243123;23;19916;-80
2022/03/26 13:33:42;;;;;;;;;;;;;;;22.11;19.44;100822.03;6215619;23;19973;-80
2022/03/26 13:36:07;;;;;;;;;;;;;;;22.09;20.31;100826.59;6214144;23;19915;-80
2022/03/26 13:38:38;;;;;;;;;;;;;;;22.24;20.67;100825.22;6243116;23;19962;-80
2022/03/26 13:41:17;;;;;;;;;;;;;;;22.14;19.48;100814.59;6241703;23;19915;-80
2022/03/26 13:43:43;;;;;;;;;;;;;;;22.32;20.48;100817.09;6243788;23;19923;-80
2022/03/26 13:46:09;;;;;;;;;;;;;;;22.33;19.41;100810.94;6242920;23;19912;-80
2022/03/26 13:48:44;;;;;;;;;;;;;;;22.21;19.34;100817.75;6243061;23;19994;-80
2022/03/26 13:51:10;;;;;;;;;;;;;;;21.97;20.05;100805.94;6243086;23;19920;-80
2022/03/26 13:53:39;;;;;;;;;;;;;;;22.07;20.40;100804.53;6216533;23;20246;-80
2022/03/26 13:56:04;;;;;;;;;;;;;;;22.13;18.96;100794.03;6242585;23;19915;-80
2022/03/26 13:58:33;;;;;;;;;;;;;;;22.10;19.62;100797.88;6243331;23;20399;-80
2022/03/26 14:00:58;;;;;;;;;;;;;;;22.22;19.55;100793.09;6242622;23;19938;-79
2022/03/26 14:03:24;;;;;;;;;;;;;;;21.97;19.00;100789.00;6242438;23;20365;-80
2022/03/26 14:05:50;;;;;;;;;;;;;;;21.82;19.04;100802.41;6242858;23;20266;-80
2022/03/26 14:08:15;;;;;;;;;;;;;;;21.69;19.89;100796.34;6242844;23;19915;-80
2022/03/26 14:10:44;;;;;;;;;;;;;;;21.48;20.08;100792.78;6241978;23;19998;-80
2022/03/26 14:13:10;;;;;;;;;;;;;;;21.46;20.13;100788.91;6216341;23;20024;-80
2022/03/26 14:15:36;;;;;;;;;;;;;;;21.46;19.95;100777.59;6242578;23;19919;-80
2022/03/26 14:18:01;;;;;;;;;;;;;;;21.49;20.75;100782.25;6243038;23;19959;-79
2022/03/26 14:20:27;;;;;;;;;;;;;;;21.60;20.24;100788.81;6241907;23;19994;-79
2022/03/26 14:22:56;;;;;;;;;;;;;;;21.67;20.27;100768.63;6214462;23;19969;-79
2022/03/26 14:25:23;;;;;;;;;;;;;;;21.74;19.81;100770.25;6216287;23;20022;-79
2022/03/26 14:27:48;;;;;;;;;;;;;;;21.88;19.99;100772.94;6243231;23;19966;-79
2022/03/26 14:30:14;;;;;;;;;;;;;;;21.87;19.37;100779.13;6242468;23;20297;-79
2022/03/26 14:32:39;;;;;;;;;;;;;;;21.80;19.72;100771.06;6243147;23;19923;-80
2022/03/26 14:35:05;;;;;;;;;;;;;;;21.84;20.25;100769.56;6242762;23;19915;-79
2022/03/26 14:37:30;;;;;;;;;;;;;;;21.72;19.29;100759.44;6243091;23;20246;-79
2022/03/26 14:39:55;;;;;;;;;;;;;;;21.50;19.65;100778.16;6241289;23;19990;-79
2022/03/26 14:42:21;;;;;;;;;;;;;;;21.09;19.27;100769.66;6242124;23;20363;-79
2022/03/26 14:44:47;;;;;;;;;;;;;;;21.06;20.07;100765.03;6243511;23;19912;-78
2022/03/26 14:47:12;;;;;;;;;;;;;;;21.12;19.77;100765.09;6243077;23;20410;-79